Terminal Aerodrome Forecast
Issued by NWS

Home | Current Version | Previous Version | Text Only | Print | Product List | Glossary On
Versions: 1 2 3 4 5 6 7 8 9 10 11 12 13 14 15 16 17 18
000
FTUS45 KABQ 200500
TAFTCC
TAF
KTCC 200538Z 2006/2106 VRB05KT P6SM VCFG FEW008 SCT250
      TEMPO 2007/2011 2SM BR BKN004
     FM201800 24008KT P6SM SCT250=

USA.gov is the U.S. government's official web portal to all federal, state and local government web resources and services.